Dades meteomassalio
Diari Summary for Febrer 15, 2018 Units:  Both    English   Metric
« Previous Day
Next Day »
Diari Semanal Mensual Anual Personalitzat
  Maxima: Minima: Mijana:
Temperatura: TemperatureC °F /  -17.8 °C 1.7 °F /  -16.8 °C 9.8 °F /  -12.3 °C
Rosada: DewpointC °F /  -17.8 °C -0.3 °F /  -17.9 °C 5.2 °F /  -14.9 °C
Humitat: Humidity % 53 % 74 %
Velocitat del vent: WindSpeedKMH mph /  0 km/h - 3.9 mph /  6.3 km/h
Racha vent: WindSpeedGustKMH mph /  0 km/h - -
Vent:- - WSW
Pressio: PressurehPa in /  0 hPa 1021.6 in /  34591.4 hPa -
Pluja: 0.0 in /  0 mm    
Historical Graphs
 
 
Tabular Data for Febrer 15, 2018
Time Temperature Dew Point Pressure Wind Wind Speed Wind Gust Humidity Rainfall Rate (Hourly) solar Conditions
TemperatureC °F /  -17.8 °C DewpointC °F /  -17.8 °C PressurehPa in /  0 hPa Calm     Humidity % HourlyPrecipMM in /  0 mm SolarRadiationWatts/m^2 W/m2 Conditions
00:00 6.7 °F /  -14.1 °C 2.7 °F /  -16.3 °C 1021.6 in /  34591.4 hPa WNW 7.4 mph /  11.9 km/h 7.4 mph /  11.9 km/h 76 % 0.0 in /  0 mm 0.0 W/m2 CLR
00:05 6.7 °F /  -14.1 °C 2.7 °F /  -16.3 °C 1021.6 in /  34591.4 hPa NW 6.4 mph /  10.3 km/h 6.4 mph /  10.3 km/h 76 % 0.0 in /  0 mm 0.0 W/m2 RA
00:10 6.1 °F /  -14.4 °C 2.2 °F /  -16.6 °C 1021.6 in /  34591.4 hPa NW 8.0 mph /  12.9 km/h 8.0 mph /  12.9 km/h 76 % 0.0 in /  0 mm 0.0 W/m2 CLR
00:15 6.1 °F /  -14.4 °C 2.2 °F /  -16.6 °C 1021.6 in /  34591.4 hPa NW 7.4 mph /  11.9 km/h 7.4 mph /  11.9 km/h 76 % 0.0 in /  0 mm 0.0 W/m2 CLR
00:20 6.1 °F /  -14.4 °C 2.2 °F /  -16.6 °C 1021.6 in /  34591.4 hPa NW 7.4 mph /  11.9 km/h 7.4 mph /  11.9 km/h 76 % 0.0 in /  0 mm 0.0 W/m2 CLR
00:25 6.1 °F /  -14.4 °C 2.2 °F /  -16.6 °C 1021.6 in /  34591.4 hPa NW 11.1 mph /  17.9 km/h 11.1 mph /  17.9 km/h 76 % 0.0 in /  0 mm 0.0 W/m2 CLR
00:30 6.1 °F /  -14.4 °C 2.2 °F /  -16.6 °C 1021.6 in /  34591.4 hPa NNW 11.1 mph /  17.9 km/h 11.1 mph /  17.9 km/h 76 % 0.0 in /  0 mm 0.0 W/m2 CLR
00:35 6.1 °F /  -14.4 °C 2.2 °F /  -16.6 °C 1021.6 in /  34591.4 hPa NW 11.1 mph /  17.9 km/h 11.1 mph /  17.9 km/h 76 % 0.0 in /  0 mm 0.0 W/m2 CLR
00:40 5.6 °F /  -14.7 °C 1.7 °F /  -16.8 °C 1021.6 in /  34591.4 hPa NW 13.0 mph /  20.9 km/h 13.0 mph /  20.9 km/h 76 % 0.0 in /  0 mm 0.0 W/m2 CLR
00:45 5.6 °F /  -14.7 °C 1.7 °F /  -16.8 °C 1021.6 in /  34591.4 hPa NNW 13.0 mph /  20.9 km/h 13.0 mph /  20.9 km/h 76 % 0.0 in /  0 mm 0.0 W/m2 CLR
00:50 5.6 °F /  -14.7 °C 2.0 °F /  -16.7 °C 1021.6 in /  34591.4 hPa NNW 11.1 mph /  17.9 km/h 11.1 mph /  17.9 km/h 78 % 0.0 in /  0 mm 0.0 W/m2 CLR
00:55 6.7 °F /  -14.1 °C 3.3 °F /  -15.9 °C 1021.6 in /  34591.4 hPa NNW 9.3 mph /  15 km/h 9.3 mph /  15 km/h 79 % 0.0 in /  0 mm 0.0 W/m2 CLR
01:05 8.3 °F /  -13.2 °C 4.9 °F /  -15.1 °C 1021.6 in /  34591.4 hPa NW 11.1 mph /  17.9 km/h 11.1 mph /  17.9 km/h 79 % 0.0 in /  0 mm 0.0 W/m2 CLR
01:10 8.9 °F /  -12.8 °C 5.4 °F /  -14.8 °C 1021.9 in /  34601.5 hPa NW 5.6 mph /  9 km/h 5.6 mph /  9 km/h 79 % 0.0 in /  0 mm 0.0 W/m2 CLR
01:15 8.3 °F /  -13.2 °C 4.7 °F /  -15.2 °C 1021.9 in /  34601.5 hPa Calm     78 % 0.0 in /  0 mm 0.0 W/m2 CLR
01:20 8.3 °F /  -13.2 °C 4.7 °F /  -15.2 °C 1021.9 in /  34601.5 hPa WNW 9.7 mph /  15.6 km/h 9.7 mph /  15.6 km/h 78 % 0.0 in /  0 mm 0.0 W/m2 CLR
01:25 8.3 °F /  -13.2 °C 4.7 °F /  -15.2 °C 1021.9 in /  34601.5 hPa WNW 9.3 mph /  15 km/h 9.3 mph /  15 km/h 78 % 0.0 in /  0 mm 0.0 W/m2 CLR
01:30 7.8 °F /  -13.4 °C 4.2 °F /  -15.4 °C 1021.9 in /  34601.5 hPa WNW 11.1 mph /  17.9 km/h 11.1 mph /  17.9 km/h 78 % 0.0 in /  0 mm 0.0 W/m2 CLR
01:35 7.2 °F /  -13.8 °C 3.4 °F /  -15.9 °C 1021.9 in /  34601.5 hPa Calm     77 % 0.0 in /  0 mm 0.0 W/m2 CLR
01:40 6.7 °F /  -14.1 °C 3.1 °F /  -16.1 °C 1022.2 in /  34611.7 hPa Calm     78 % 0.0 in /  0 mm 0.0 W/m2 CLR
01:45 6.7 °F /  -14.1 °C 3.1 °F /  -16.1 °C 1021.9 in /  34601.5 hPa Calm     78 % 0.0 in /  0 mm 0.0 W/m2 CLR
01:50 6.1 °F /  -14.4 °C 2.6 °F /  -16.3 °C 1022.2 in /  34611.7 hPa WNW 11.1 mph /  17.9 km/h 11.1 mph /  17.9 km/h 78 % 0.0 in /  0 mm 0.0 W/m2 CLR
01:55 6.1 °F /  -14.4 °C 2.6 °F /  -16.3 °C 1022.2 in /  34611.7 hPa WNW 13.0 mph /  20.9 km/h 13.0 mph /  20.9 km/h 78 % 0.0 in /  0 mm 0.0 W/m2 CLR
02:00 6.1 °F /  -14.4 °C 2.6 °F /  -16.3 °C 1021.9 in /  34601.5 hPa WNW 11.3 mph /  18.2 km/h 11.3 mph /  18.2 km/h 78 % 0.0 in /  0 mm 0.0 W/m2 CLR
02:05 6.1 °F /  -14.4 °C 2.6 °F /  -16.3 °C 1021.9 in /  34601.5 hPa NW 11.3 mph /  18.2 km/h 11.3 mph /  18.2 km/h 78 % 0.0 in /  0 mm 0.0 W/m2 CLR
02:10 6.1 °F /  -14.4 °C 2.6 °F /  -16.3 °C 1022.2 in /  34611.7 hPa WNW 8.0 mph /  12.9 km/h 8.0 mph /  12.9 km/h 78 % 0.0 in /  0 mm 0.0 W/m2 CLR
02:15 6.1 °F /  -14.4 °C 2.6 °F /  -16.3 °C 1022.2 in /  34611.7 hPa WNW 8.0 mph /  12.9 km/h 8.0 mph /  12.9 km/h 78 % 0.0 in /  0 mm 0.0 W/m2 CLR
02:20 6.1 °F /  -14.4 °C 2.6 °F /  -16.3 °C 1022.2 in /  34611.7 hPa WNW 7.4 mph /  11.9 km/h 7.4 mph /  11.9 km/h 78 % 0.0 in /  0 mm 0.0 W/m2 CLR
02:25 5.6 °F /  -14.7 °C 2.0 °F /  -16.7 °C 1022.2 in /  34611.7 hPa Calm     78 % 0.0 in /  0 mm 0.0 W/m2 CLR
02:30 5.6 °F /  -14.7 °C 1.8 °F /  -16.8 °C 1022.2 in /  34611.7 hPa Calm     77 % 0.0 in /  0 mm 0.0 W/m2 CLR
02:35 5.0 °F /  -15 °C 1.8 °F /  -16.8 °C 1022.6 in /  34625.2 hPa Calm     80 % 0.0 in /  0 mm 0.0 W/m2 CLR
02:40 5.0 °F /  -15 °C 2.0 °F /  -16.7 °C 1022.6 in /  34625.2 hPa West 9.3 mph /  15 km/h 9.3 mph /  15 km/h 81 % 0.0 in /  0 mm 0.0 W/m2 CLR
02:45 5.0 °F /  -15 °C 2.0 °F /  -16.7 °C 1022.6 in /  34625.2 hPa WNW 8.0 mph /  12.9 km/h 8.0 mph /  12.9 km/h 81 % 0.0 in /  0 mm 0.0 W/m2 CLR
02:50 4.4 °F /  -15.3 °C 1.4 °F /  -17 °C 1022.6 in /  34625.2 hPa WNW 7.4 mph /  11.9 km/h 7.4 mph /  11.9 km/h 81 % 0.0 in /  0 mm 0.0 W/m2 CLR
02:55 4.4 °F /  -15.3 °C 1.4 °F /  -17 °C 1022.6 in /  34625.2 hPa WNW 7.4 mph /  11.9 km/h 7.4 mph /  11.9 km/h 81 % 0.0 in /  0 mm 0.0 W/m2 CLR
03:00 4.4 °F /  -15.3 °C 1.3 °F /  -17.1 °C 1022.9 in /  34635.4 hPa Calm     80 % 0.0 in /  0 mm 0.0 W/m2 CLR
03:05 4.4 °F /  -15.3 °C 1.1 °F /  -17.2 °C 1022.9 in /  34635.4 hPa Calm     79 % 0.0 in /  0 mm 0.0 W/m2 CLR
03:10 4.4 °F /  -15.3 °C 1.1 °F /  -17.2 °C 1022.9 in /  34635.4 hPa Calm     79 % 0.0 in /  0 mm 0.0 W/m2 CLR
03:15 4.4 °F /  -15.3 °C 1.3 °F /  -17.1 °C 1022.6 in /  34625.2 hPa Calm     80 % 0.0 in /  0 mm 0.0 W/m2 CLR
03:20 4.4 °F /  -15.3 °C 1.8 °F /  -16.8 °C 1022.6 in /  34625.2 hPa Calm     83 % 0.0 in /  0 mm 0.0 W/m2 CLR
03:25 4.4 °F /  -15.3 °C 1.8 °F /  -16.8 °C 1022.9 in /  34635.4 hPa WNW 5.6 mph /  9 km/h 5.6 mph /  9 km/h 83 % 0.0 in /  0 mm 0.0 W/m2 CLR
03:30 4.4 °F /  -15.3 °C 1.6 °F /  -16.9 °C 1022.9 in /  34635.4 hPa Calm     82 % 0.0 in /  0 mm 0.0 W/m2 CLR
03:35 3.9 °F /  -15.6 °C 1.3 °F /  -17.1 °C 1022.9 in /  34635.4 hPa Calm     83 % 0.0 in /  0 mm 0.0 W/m2 CLR
03:40 3.9 °F /  -15.6 °C 1.4 °F /  -17 °C 1022.9 in /  34635.4 hPa Calm     84 % 0.0 in /  0 mm 0.0 W/m2 CLR
03:45 3.9 °F /  -15.6 °C 1.6 °F /  -16.9 °C 1022.9 in /  34635.4 hPa WNW 5.6 mph /  9 km/h 5.6 mph /  9 km/h 85 % 0.0 in /  0 mm 0.0 W/m2 CLR
03:50 3.9 °F /  -15.6 °C 1.9 °F /  -16.7 °C 1022.9 in /  34635.4 hPa WNW 9.7 mph /  15.6 km/h 9.7 mph /  15.6 km/h 87 % 0.0 in /  0 mm 0.0 W/m2 CLR
03:55 3.9 °F /  -15.6 °C 1.8 °F /  -16.8 °C 1022.9 in /  34635.4 hPa WNW 4.8 mph /  7.7 km/h   86 % 0.0 in /  0 mm 0.0 W/m2 CLR
04:00 3.9 °F /  -15.6 °C 1.3 °F /  -17.1 °C 1022.9 in /  34635.4 hPa Calm     83 % 0.0 in /  0 mm 0.0 W/m2 CLR
04:05 3.3 °F /  -15.9 °C 0.6 °F /  -17.4 °C 1022.9 in /  34635.4 hPa Calm     82 % 0.0 in /  0 mm 0.0 W/m2 CLR
04:10 3.3 °F /  -15.9 °C 0.7 °F /  -17.4 °C 1022.9 in /  34635.4 hPa Calm     83 % 0.0 in /  0 mm 0.0 W/m2 CLR
04:15 3.3 °F /  -15.9 °C 0.9 °F /  -17.3 °C 1022.9 in /  34635.4 hPa Calm     84 % 0.0 in /  0 mm 0.0 W/m2 CLR
04:20 3.3 °F /  -15.9 °C 0.9 °F /  -17.3 °C 1022.9 in /  34635.4 hPa Calm     84 % 0.0 in /  0 mm 0.0 W/m2 CLR
04:25 3.3 °F /  -15.9 °C 1.1 °F /  -17.2 °C 1022.9 in /  34635.4 hPa Calm     85 % 0.0 in /  0 mm 0.0 W/m2 CLR
04:30 3.3 °F /  -15.9 °C 1.4 °F /  -17 °C 1022.9 in /  34635.4 hPa Calm     87 % 0.0 in /  0 mm 0.0 W/m2 CLR
04:35 3.3 °F /  -15.9 °C 1.2 °F /  -17.1 °C 1022.9 in /  34635.4 hPa Calm     86 % 0.0 in /  0 mm 0.0 W/m2 CLR
04:40 3.3 °F /  -15.9 °C 0.4 °F /  -17.6 °C 1022.9 in /  34635.4 hPa Calm     81 % 0.0 in /  0 mm 0.0 W/m2 CLR
04:45 2.8 °F /  -16.2 °C -0.2 °F /  -17.9 °C 1023.2 in /  34645.6 hPa Calm     81 % 0.0 in /  0 mm 0.0 W/m2 CLR
04:50 2.8 °F /  -16.2 °C -0.2 °F /  -17.9 °C 1023.2 in /  34645.6 hPa Calm     81 % 0.0 in /  0 mm 0.0 W/m2 CLR
04:55 2.8 °F /  -16.2 °C 0.0 °F /  -17.8 °C 1023.2 in /  34645.6 hPa Calm     82 % 0.0 in /  0 mm 0.0 W/m2 CLR
05:00 2.8 °F /  -16.2 °C -0.2 °F /  -17.9 °C 1023.2 in /  34645.6 hPa Calm     81 % 0.0 in /  0 mm 0.0 W/m2 CLR
05:06 2.8 °F /  -16.2 °C 0.0 °F /  -17.8 °C 1023.2 in /  34645.6 hPa Calm     82 % 0.0 in /  0 mm 0.0 W/m2 CLR
05:11 2.8 °F /  -16.2 °C 0.3 °F /  -17.6 °C 1023.2 in /  34645.6 hPa Calm     84 % 0.0 in /  0 mm 0.0 W/m2 CLR
05:16 2.8 °F /  -16.2 °C 0.3 °F /  -17.6 °C 1023.2 in /  34645.6 hPa Calm     84 % 0.0 in /  0 mm 0.0 W/m2 CLR
05:21 2.8 °F /  -16.2 °C 0.5 °F /  -17.5 °C 1023.2 in /  34645.6 hPa Calm     85 % 0.0 in /  0 mm 0.0 W/m2 CLR
05:26 2.2 °F /  -16.6 °C 0.1 °F /  -17.7 °C 1023.2 in /  34645.6 hPa Calm     86 % 0.0 in /  0 mm 0.0 W/m2 CLR
05:31 2.2 °F /  -16.6 °C 0.1 °F /  -17.7 °C 1023.2 in /  34645.6 hPa Calm     86 % 0.0 in /  0 mm 0.0 W/m2 CLR
05:36 2.2 °F /  -16.6 °C -0.2 °F /  -17.9 °C 1023.2 in /  34645.6 hPa Calm     84 % 0.0 in /  0 mm 0.0 W/m2 CLR
05:41 2.2 °F /  -16.6 °C -0.1 °F /  -17.8 °C 1023.2 in /  34645.6 hPa Calm     85 % 0.0 in /  0 mm 0.0 W/m2 CLR
05:46 2.2 °F /  -16.6 °C 0.1 °F /  -17.7 °C 1023.6 in /  34659.1 hPa Calm     86 % 0.0 in /  0 mm 0.0 W/m2 CLR
05:56 2.2 °F /  -16.6 °C 0.3 °F /  -17.6 °C 1023.6 in /  34659.1 hPa Calm     87 % 0.0 in /  0 mm 0.0 W/m2 CLR
06:01 2.2 °F /  -16.6 °C 0.3 °F /  -17.6 °C 1023.6 in /  34659.1 hPa Calm     87 % 0.0 in /  0 mm 0.0 W/m2 CLR
06:06 2.2 °F /  -16.6 °C 0.3 °F /  -17.6 °C 1023.2 in /  34645.6 hPa Calm     87 % 0.0 in /  0 mm 0.0 W/m2 CLR
06:11 2.2 °F /  -16.6 °C 0.3 °F /  -17.6 °C 1023.2 in /  34645.6 hPa Calm     87 % 0.0 in /  0 mm 0.0 W/m2 CLR
06:16 2.2 °F /  -16.6 °C 0.3 °F /  -17.6 °C 1023.6 in /  34659.1 hPa Calm     87 % 0.0 in /  0 mm 0.0 W/m2 CLR
06:21 2.2 °F /  -16.6 °C 0.3 °F /  -17.6 °C 1023.6 in /  34659.1 hPa Calm     87 % 0.0 in /  0 mm 0.0 W/m2 CLR
06:26 1.7 °F /  -16.8 °C -0.1 °F /  -17.8 °C 1023.6 in /  34659.1 hPa Calm     88 % 0.0 in /  0 mm 0.0 W/m2 CLR
06:31 2.2 °F /  -16.6 °C 0.6 °F /  -17.4 °C 1023.6 in /  34659.1 hPa Calm     89 % 0.0 in /  0 mm 0.0 W/m2 CLR
06:36 2.2 °F /  -16.6 °C 0.6 °F /  -17.4 °C 1023.9 in /  34669.3 hPa Calm     89 % 0.0 in /  0 mm 0.0 W/m2 CLR
06:41 2.2 °F /  -16.6 °C 0.6 °F /  -17.4 °C 1023.9 in /  34669.3 hPa Calm     89 % 0.0 in /  0 mm 0.0 W/m2 CLR
06:46 2.2 °F /  -16.6 °C 0.6 °F /  -17.4 °C 1023.9 in /  34669.3 hPa WNW 1.6 mph /  2.6 km/h   89 % 0.0 in /  0 mm 0.0 W/m2 CLR
06:51 2.2 °F /  -16.6 °C 0.6 °F /  -17.4 °C 1023.9 in /  34669.3 hPa NW 9.3 mph /  15 km/h 9.3 mph /  15 km/h 89 % 0.0 in /  0 mm 0.0 W/m2 CLR
06:56 2.2 °F /  -16.6 °C 0.1 °F /  -17.7 °C 1023.9 in /  34669.3 hPa Calm     86 % 0.0 in /  0 mm 0.0 W/m2 CLR
07:01 2.2 °F /  -16.6 °C 0.1 °F /  -17.7 °C 1023.9 in /  34669.3 hPa Calm     86 % 0.0 in /  0 mm 0.0 W/m2 CLR
07:06 2.2 °F /  -16.6 °C 0.1 °F /  -17.7 °C 1023.9 in /  34669.3 hPa Calm     86 % 0.0 in /  0 mm 0.0 W/m2 CLR
07:11 2.2 °F /  -16.6 °C -0.1 °F /  -17.8 °C 1023.9 in /  34669.3 hPa Calm     85 % 0.0 in /  0 mm 0.0 W/m2 CLR
07:16 2.2 °F /  -16.6 °C 0.1 °F /  -17.7 °C 1024.3 in /  34682.8 hPa Calm     86 % 0.0 in /  0 mm 0.0 W/m2 CLR
07:21 2.2 °F /  -16.6 °C 0.1 °F /  -17.7 °C 1024.3 in /  34682.8 hPa Calm     86 % 0.0 in /  0 mm 0.0 W/m2 CLR
07:26 2.2 °F /  -16.6 °C 0.3 °F /  -17.6 °C 1024.3 in /  34682.8 hPa Calm     87 % 0.0 in /  0 mm 0.0 W/m2 CLR
07:31 2.2 °F /  -16.6 °C 0.4 °F /  -17.6 °C 1024.3 in /  34682.8 hPa Calm     88 % 0.0 in /  0 mm 0.0 W/m2 CLR
07:36 2.2 °F /  -16.6 °C 0.4 °F /  -17.6 °C 1024.3 in /  34682.8 hPa Calm     88 % 0.0 in /  0 mm 0.0 W/m2 CLR
07:41 2.2 °F /  -16.6 °C 0.6 °F /  -17.4 °C 1024.3 in /  34682.8 hPa Calm     89 % 0.0 in /  0 mm 0.0 W/m2 CLR
07:46 2.2 °F /  -16.6 °C 0.6 °F /  -17.4 °C 1024.3 in /  34682.8 hPa Calm     89 % 0.0 in /  0 mm 0.0 W/m2 OVC
07:51 2.2 °F /  -16.6 °C 0.3 °F /  -17.6 °C 1024.6 in /  34693 hPa Calm     87 % 0.0 in /  0 mm 0.0 W/m2 OVC
07:56 1.7 °F /  -16.8 °C -0.3 °F /  -17.9 °C 1024.6 in /  34693 hPa Calm     87 % 0.0 in /  0 mm 7.0 W/m2 OVC
08:01 1.7 °F /  -16.8 °C -0.1 °F /  -17.8 °C 1024.6 in /  34693 hPa Calm     88 % 0.0 in /  0 mm 9.0 W/m2 BKN
08:06 1.7 °F /  -16.8 °C -0.1 °F /  -17.8 °C 1024.9 in /  34703.1 hPa Calm     88 % 0.0 in /  0 mm 12.0 W/m2 BKN
08:11 1.7 °F /  -16.8 °C -0.1 °F /  -17.8 °C 1024.9 in /  34703.1 hPa Calm     88 % 0.0 in /  0 mm 14.0 W/m2 BKN
08:16 1.7 °F /  -16.8 °C 0.1 °F /  -17.7 °C 1025.3 in /  34716.7 hPa Calm     89 % 0.0 in /  0 mm 18.0 W/m2 BKN
08:21 1.7 °F /  -16.8 °C -0.1 °F /  -17.8 °C 1025.3 in /  34716.7 hPa Calm     88 % 0.0 in /  0 mm 19.0 W/m2 BKN
08:26 1.7 °F /  -16.8 °C -0.1 °F /  -17.8 °C 1025.3 in /  34716.7 hPa Calm     88 % 0.0 in /  0 mm 30.0 W/m2 BKN
08:31 1.7 °F /  -16.8 °C -0.1 °F /  -17.8 °C 1025.3 in /  34716.7 hPa Calm     88 % 0.0 in /  0 mm 40.0 W/m2 BKN
08:36 2.2 °F /  -16.6 °C 0.4 °F /  -17.6 °C 1025.3 in /  34716.7 hPa Calm     88 % 0.0 in /  0 mm 44.0 W/m2 BKN
08:41 2.2 °F /  -16.6 °C 0.4 °F /  -17.6 °C 1025.3 in /  34716.7 hPa Calm     88 % 0.0 in /  0 mm 60.0 W/m2 SCT
08:46 2.2 °F /  -16.6 °C 0.6 °F /  -17.4 °C 1025.6 in /  34726.8 hPa Calm     89 % 0.0 in /  0 mm 69.0 W/m2 FEW
08:51 2.2 °F /  -16.6 °C 0.4 °F /  -17.6 °C 1025.6 in /  34726.8 hPa Calm     88 % 0.0 in /  0 mm 65.0 W/m2 SCT
08:56 2.8 °F /  -16.2 °C 0.7 °F /  -17.4 °C 1026.0 in /  34740.4 hPa Calm     86 % 0.0 in /  0 mm 60.0 W/m2 SCT
09:01 3.3 °F /  -15.9 °C 1.1 °F /  -17.2 °C 1026.0 in /  34740.4 hPa Calm     85 % 0.0 in /  0 mm 44.0 W/m2 SCT
09:06 3.3 °F /  -15.9 °C 1.1 °F /  -17.2 °C 1025.6 in /  34726.8 hPa Calm     85 % 0.0 in /  0 mm 49.0 W/m2 SCT
09:11 3.3 °F /  -15.9 °C 1.2 °F /  -17.1 °C 1026.0 in /  34740.4 hPa Calm     86 % 0.0 in /  0 mm 67.0 W/m2 SCT
09:16 3.3 °F /  -15.9 °C 1.2 °F /  -17.1 °C 1026.0 in /  34740.4 hPa Calm     86 % 0.0 in /  0 mm 84.0 W/m2 FEW
09:21 3.9 °F /  -15.6 °C 1.8 °F /  -16.8 °C 1026.0 in /  34740.4 hPa Calm     86 % 0.0 in /  0 mm 135.0 W/m2 CLR
09:26 3.9 °F /  -15.6 °C 1.6 °F /  -16.9 °C 1026.0 in /  34740.4 hPa Calm     85 % 0.0 in /  0 mm 195.0 W/m2 CLR
09:31 4.4 °F /  -15.3 °C 2.2 °F /  -16.6 °C 1025.6 in /  34726.8 hPa Calm     85 % 0.0 in /  0 mm 202.0 W/m2 CLR
09:36 5.0 °F /  -15 °C 2.2 °F /  -16.6 °C 1026.0 in /  34740.4 hPa Calm     82 % 0.0 in /  0 mm 241.0 W/m2 CLR
09:41 5.0 °F /  -15 °C 1.7 °F /  -16.8 °C 1026.0 in /  34740.4 hPa Calm     79 % 0.0 in /  0 mm 257.0 W/m2 CLR
09:46 5.6 °F /  -14.7 °C 2.0 °F /  -16.7 °C 1026.0 in /  34740.4 hPa Calm     78 % 0.0 in /  0 mm 271.0 W/m2 CLR
09:51 6.1 °F /  -14.4 °C 2.6 °F /  -16.3 °C 1026.0 in /  34740.4 hPa Calm     78 % 0.0 in /  0 mm 283.0 W/m2 CLR
09:56 6.7 °F /  -14.1 °C 2.7 °F /  -16.3 °C 1026.0 in /  34740.4 hPa Calm     76 % 0.0 in /  0 mm 301.0 W/m2 CLR
10:01 6.7 °F /  -14.1 °C 2.6 °F /  -16.3 °C 1026.3 in /  34750.5 hPa Calm     75 % 0.0 in /  0 mm 313.0 W/m2 CLR
10:06 7.2 °F /  -13.8 °C 2.9 °F /  -16.2 °C 1026.0 in /  34740.4 hPa Calm     74 % 0.0 in /  0 mm 327.0 W/m2 CLR
10:12 7.8 °F /  -13.4 °C 3.2 °F /  -16 °C 1026.0 in /  34740.4 hPa Calm     73 % 0.0 in /  0 mm 339.0 W/m2 CLR
10:16 7.8 °F /  -13.4 °C 3.1 °F /  -16.1 °C 1026.3 in /  34750.5 hPa Calm     72 % 0.0 in /  0 mm 353.0 W/m2 CLR
10:22 8.3 °F /  -13.2 °C 3.4 °F /  -15.9 °C 1026.3 in /  34750.5 hPa Calm     71 % 0.0 in /  0 mm 364.0 W/m2 CLR
10:27 9.4 °F /  -12.6 °C 4.1 °F /  -15.5 °C 1026.3 in /  34750.5 hPa NW 7.4 mph /  11.9 km/h 7.4 mph /  11.9 km/h 69 % 0.0 in /  0 mm 378.0 W/m2 CLR
10:32 10.0 °F /  -12.2 °C 4.3 °F /  -15.4 °C 1026.3 in /  34750.5 hPa NW 20.4 mph /  32.8 km/h 20.4 mph /  32.8 km/h 68 % 0.0 in /  0 mm 388.0 W/m2 CLR
10:37 11.1 °F /  -11.6 °C 5.6 °F /  -14.7 °C 1026.3 in /  34750.5 hPa WNW 11.3 mph /  18.2 km/h 11.3 mph /  18.2 km/h 69 % 0.0 in /  0 mm 403.0 W/m2 CLR
10:42 12.8 °F /  -10.7 °C 7.0 °F /  -13.9 °C 1026.3 in /  34750.5 hPa NNW 9.3 mph /  15 km/h 9.3 mph /  15 km/h 68 % 0.0 in /  0 mm 413.0 W/m2 CLR
10:47 13.3 °F /  -10.4 °C 7.3 °F /  -13.7 °C 1026.3 in /  34750.5 hPa NW 14.8 mph /  23.8 km/h 14.8 mph /  23.8 km/h 67 % 0.0 in /  0 mm 424.0 W/m2 CLR
10:52 14.4 °F /  -9.8 °C 8.6 °F /  -13 °C 1026.3 in /  34750.5 hPa WNW 18.5 mph /  29.8 km/h 18.5 mph /  29.8 km/h 68 % 0.0 in /  0 mm 434.0 W/m2 CLR
10:57 15.0 °F /  -9.4 °C 8.9 °F /  -12.8 °C 1026.3 in /  34750.5 hPa NNW 20.4 mph /  32.8 km/h 20.4 mph /  32.8 km/h 67 % 0.0 in /  0 mm 446.0 W/m2 CLR
11:02 15.0 °F /  -9.4 °C 8.9 °F /  -12.8 °C 1026.3 in /  34750.5 hPa NNW 18.5 mph /  29.8 km/h 18.5 mph /  29.8 km/h 67 % 0.0 in /  0 mm 455.0 W/m2 CLR
11:07 15.6 °F /  -9.1 °C 9.2 °F /  -12.7 °C 1026.3 in /  34750.5 hPa NW 11.1 mph /  17.9 km/h 11.1 mph /  17.9 km/h 66 % 0.0 in /  0 mm 466.0 W/m2 CLR
11:12 15.6 °F /  -9.1 °C 9.2 °F /  -12.7 °C 1026.3 in /  34750.5 hPa North 14.8 mph /  23.8 km/h 14.8 mph /  23.8 km/h 66 % 0.0 in /  0 mm 475.0 W/m2 CLR
11:17 15.6 °F /  -9.1 °C 9.4 °F /  -12.6 °C 1026.6 in /  34760.7 hPa NNW 24.1 mph /  38.8 km/h 24.1 mph /  38.8 km/h 67 % 0.0 in /  0 mm 482.0 W/m2 CLR
11:22 16.1 °F /  -8.8 °C 9.8 °F /  -12.3 °C 1026.3 in /  34750.5 hPa NNW 14.8 mph /  23.8 km/h 14.8 mph /  23.8 km/h 66 % 0.0 in /  0 mm 494.0 W/m2 CLR
11:27 16.1 °F /  -8.8 °C 9.8 °F /  -12.3 °C 1026.3 in /  34750.5 hPa NNW 13.0 mph /  20.9 km/h 13.0 mph /  20.9 km/h 66 % 0.0 in /  0 mm 504.0 W/m2 CLR
11:32 16.1 °F /  -8.8 °C 9.5 °F /  -12.5 °C 1026.3 in /  34750.5 hPa NNW 18.5 mph /  29.8 km/h 18.5 mph /  29.8 km/h 65 % 0.0 in /  0 mm 512.0 W/m2 CLR
11:37 16.7 °F /  -8.5 °C 10.1 °F /  -12.2 °C 1026.3 in /  34750.5 hPa NW 18.5 mph /  29.8 km/h 18.5 mph /  29.8 km/h 65 % 0.0 in /  0 mm 519.0 W/m2 CLR
11:42 16.7 °F /  -8.5 °C 9.8 °F /  -12.3 °C 1026.3 in /  34750.5 hPa WNW 7.4 mph /  11.9 km/h 7.4 mph /  11.9 km/h 64 % 0.0 in /  0 mm 527.0 W/m2 CLR
11:47 16.7 °F /  -8.5 °C 9.8 °F /  -12.3 °C 1026.3 in /  34750.5 hPa NNW 22.2 mph /  35.7 km/h 22.2 mph /  35.7 km/h 64 % 0.0 in /  0 mm 534.0 W/m2 CLR
11:52 17.2 °F /  -8.2 °C 10.1 °F /  -12.2 °C 1026.3 in /  34750.5 hPa NW 18.5 mph /  29.8 km/h 18.5 mph /  29.8 km/h 63 % 0.0 in /  0 mm 543.0 W/m2 CLR
12:02 17.2 °F /  -8.2 °C 10.3 °F /  -12.1 °C 1026.3 in /  34750.5 hPa NNW 20.9 mph /  33.6 km/h 20.9 mph /  33.6 km/h 64 % 0.0 in /  0 mm 554.0 W/m2 CLR
12:07 17.8 °F /  -7.9 °C 10.9 °F /  -11.7 °C 1026.3 in /  34750.5 hPa North 24.1 mph /  38.8 km/h 24.1 mph /  38.8 km/h 64 % 0.0 in /  0 mm 561.0 W/m2 CLR
12:17 17.8 °F /  -7.9 °C 10.4 °F /  -12 °C 1026.3 in /  34750.5 hPa North 29.6 mph /  47.6 km/h 29.6 mph /  47.6 km/h 62 % 0.0 in /  0 mm 571.0 W/m2 CLR
12:22 17.8 °F /  -7.9 °C 10.9 °F /  -11.7 °C 1026.0 in /  34740.4 hPa NNW 25.9 mph /  41.7 km/h 25.9 mph /  41.7 km/h 64 % 0.0 in /  0 mm 575.0 W/m2 CLR
12:27 17.8 °F /  -7.9 °C 10.6 °F /  -11.9 °C 1026.0 in /  34740.4 hPa NW 20.4 mph /  32.8 km/h 20.4 mph /  32.8 km/h 63 % 0.0 in /  0 mm 580.0 W/m2 CLR
12:32 17.8 °F /  -7.9 °C 10.4 °F /  -12 °C 1026.0 in /  34740.4 hPa NNW 31.5 mph /  50.7 km/h 31.5 mph /  50.7 km/h 62 % 0.0 in /  0 mm 585.0 W/m2 CLR
12:37 17.8 °F /  -7.9 °C 9.9 °F /  -12.3 °C 1025.6 in /  34726.8 hPa NNW 18.5 mph /  29.8 km/h 18.5 mph /  29.8 km/h 60 % 0.0 in /  0 mm 587.0 W/m2 CLR
12:42 18.3 °F /  -7.6 °C 10.7 °F /  -11.8 °C 1025.6 in /  34726.8 hPa North 25.7 mph /  41.4 km/h 25.7 mph /  41.4 km/h 61 % 0.0 in /  0 mm 589.0 W/m2 CLR
12:47 18.3 °F /  -7.6 °C 10.7 °F /  -11.8 °C 1025.6 in /  34726.8 hPa NNW 16.7 mph /  26.9 km/h 16.7 mph /  26.9 km/h 61 % 0.0 in /  0 mm 592.0 W/m2 CLR
12:52 18.3 °F /  -7.6 °C 10.7 °F /  -11.8 °C 1025.6 in /  34726.8 hPa North 24.1 mph /  38.8 km/h 24.1 mph /  38.8 km/h 61 % 0.0 in /  0 mm 594.0 W/m2 CLR
12:57 18.3 °F /  -7.6 °C 10.7 °F /  -11.8 °C 1025.6 in /  34726.8 hPa North 20.4 mph /  32.8 km/h 20.4 mph /  32.8 km/h 61 % 0.0 in /  0 mm 596.0 W/m2 CLR
13:02 18.3 °F /  -7.6 °C 10.7 °F /  -11.8 °C 1025.6 in /  34726.8 hPa NW 18.5 mph /  29.8 km/h 18.5 mph /  29.8 km/h 61 % 0.0 in /  0 mm 598.0 W/m2 CLR
13:07 18.3 °F /  -7.6 °C 10.7 °F /  -11.8 °C 1025.6 in /  34726.8 hPa NW 20.4 mph /  32.8 km/h 20.4 mph /  32.8 km/h 61 % 0.0 in /  0 mm 598.0 W/m2 CLR
13:12 18.3 °F /  -7.6 °C 10.4 °F /  -12 °C 1025.6 in /  34726.8 hPa North 18.5 mph /  29.8 km/h 18.5 mph /  29.8 km/h 60 % 0.0 in /  0 mm 598.0 W/m2 CLR
13:22 18.9 °F /  -7.3 °C 10.7 °F /  -11.8 °C 1025.3 in /  34716.7 hPa WNW 13.0 mph /  20.9 km/h 13.0 mph /  20.9 km/h 59 % 0.0 in /  0 mm 598.0 W/m2 CLR
13:27 18.9 °F /  -7.3 °C 10.9 °F /  -11.7 °C 1025.3 in /  34716.7 hPa North 14.8 mph /  23.8 km/h 14.8 mph /  23.8 km/h 60 % 0.0 in /  0 mm 596.0 W/m2 CLR
13:32 18.9 °F /  -7.3 °C 10.9 °F /  -11.7 °C 1025.3 in /  34716.7 hPa Calm     60 % 0.0 in /  0 mm 596.0 W/m2 CLR
13:37 18.9 °F /  -7.3 °C 10.9 °F /  -11.7 °C 1025.3 in /  34716.7 hPa NNE 1.9 mph /  3.1 km/h   60 % 0.0 in /  0 mm 596.0 W/m2 CLR
13:42 18.9 °F /  -7.3 °C 10.9 °F /  -11.7 °C 1025.3 in /  34716.7 hPa Calm   0.2 mph /  0.3 km/h 60 % 0.0 in /  0 mm 594.0 W/m2 CLR
13:47 18.3 °F /  -7.6 °C 10.2 °F /  -12.1 °C 1025.3 in /  34716.7 hPa NNE 3.2 mph /  5.1 km/h 3.2 mph /  5.1 km/h 59 % 0.0 in /  0 mm 591.0 W/m2 CLR
13:52 18.9 °F /  -7.3 °C 10.9 °F /  -11.7 °C 1025.3 in /  34716.7 hPa Calm     60 % 0.0 in /  0 mm 589.0 W/m2 CLR
13:57 18.9 °F /  -7.3 °C 10.7 °F /  -11.8 °C 1025.3 in /  34716.7 hPa Calm     59 % 0.0 in /  0 mm 584.0 W/m2 CLR
14:02 18.9 °F /  -7.3 °C 10.7 °F /  -11.8 °C 1024.9 in /  34703.1 hPa Calm     59 % 0.0 in /  0 mm 582.0 W/m2 CLR
14:07 18.3 °F /  -7.6 °C 10.4 °F /  -12 °C 1024.9 in /  34703.1 hPa Calm     60 % 0.0 in /  0 mm 577.0 W/m2 CLR
14:12 18.9 °F /  -7.3 °C 10.9 °F /  -11.7 °C 1024.9 in /  34703.1 hPa NNE 5.6 mph /  9 km/h 5.6 mph /  9 km/h 60 % 0.0 in /  0 mm 573.0 W/m2 CLR
14:17 18.3 °F /  -7.6 °C 10.2 °F /  -12.1 °C 1024.9 in /  34703.1 hPa NE 5.6 mph /  9 km/h 5.6 mph /  9 km/h 59 % 0.0 in /  0 mm 571.0 W/m2 CLR
14:22 19.4 °F /  -7 °C 11.2 °F /  -11.6 °C 1024.9 in /  34703.1 hPa Calm     59 % 0.0 in /  0 mm 563.0 W/m2 CLR
14:27 18.9 °F /  -7.3 °C 10.9 °F /  -11.7 °C 1024.9 in /  34703.1 hPa NNE 9.3 mph /  15 km/h 9.3 mph /  15 km/h 60 % 0.0 in /  0 mm 557.0 W/m2 CLR
14:32 18.9 °F /  -7.3 °C 10.4 °F /  -12 °C 1024.9 in /  34703.1 hPa NE 3.7 mph /  6 km/h 3.7 mph /  6 km/h 58 % 0.0 in /  0 mm 552.0 W/m2 CLR
14:37 18.9 °F /  -7.3 °C 10.2 °F /  -12.1 °C 1024.9 in /  34703.1 hPa Calm     57 % 0.0 in /  0 mm 543.0 W/m2 CLR
14:42 18.9 °F /  -7.3 °C 10.7 °F /  -11.8 °C 1024.9 in /  34703.1 hPa NE 9.3 mph /  15 km/h 9.3 mph /  15 km/h 59 % 0.0 in /  0 mm 536.0 W/m2 CLR
14:47 18.9 °F /  -7.3 °C 10.2 °F /  -12.1 °C 1024.6 in /  34693 hPa North 5.6 mph /  9 km/h 5.6 mph /  9 km/h 57 % 0.0 in /  0 mm 531.0 W/m2 CLR
14:52 19.4 °F /  -7 °C 10.7 °F /  -11.8 °C 1024.6 in /  34693 hPa NNE 4.8 mph /  7.7 km/h 4.8 mph /  7.7 km/h 57 % 0.0 in /  0 mm 522.0 W/m2 CLR
14:57 19.4 °F /  -7 °C 10.7 °F /  -11.8 °C 1024.6 in /  34693 hPa NNE 5.6 mph /  9 km/h 5.6 mph /  9 km/h 57 % 0.0 in /  0 mm 512.0 W/m2 CLR
15:02 19.4 °F /  -7 °C 10.7 °F /  -11.8 °C 1024.6 in /  34693 hPa ENE 3.2 mph /  5.1 km/h 3.2 mph /  5.1 km/h 57 % 0.0 in /  0 mm 506.0 W/m2 CLR
15:07 18.9 °F /  -7.3 °C 10.4 °F /  -12 °C 1024.6 in /  34693 hPa North 9.7 mph /  15.6 km/h 9.7 mph /  15.6 km/h 58 % 0.0 in /  0 mm 497.0 W/m2 CLR
15:12 19.4 °F /  -7 °C 10.9 °F /  -11.7 °C 1024.6 in /  34693 hPa NE 6.4 mph /  10.3 km/h 6.4 mph /  10.3 km/h 58 % 0.0 in /  0 mm 487.0 W/m2 CLR
15:17 19.4 °F /  -7 °C 10.7 °F /  -11.8 °C 1024.6 in /  34693 hPa NNE 13.0 mph /  20.9 km/h 13.0 mph /  20.9 km/h 57 % 0.0 in /  0 mm 476.0 W/m2 CLR
15:22 19.4 °F /  -7 °C 10.7 °F /  -11.8 °C 1024.6 in /  34693 hPa Calm     57 % 0.0 in /  0 mm 469.0 W/m2 CLR
15:27 19.4 °F /  -7 °C 10.7 °F /  -11.8 °C 1024.6 in /  34693 hPa NNE 6.4 mph /  10.3 km/h 6.4 mph /  10.3 km/h 57 % 0.0 in /  0 mm 461.0 W/m2 CLR
15:32 19.4 °F /  -7 °C 10.4 °F /  -12 °C 1024.6 in /  34693 hPa NNE 9.3 mph /  15 km/h 9.3 mph /  15 km/h 56 % 0.0 in /  0 mm 450.0 W/m2 CLR
15:37 19.4 °F /  -7 °C 10.4 °F /  -12 °C 1024.6 in /  34693 hPa NE 11.3 mph /  18.2 km/h 11.3 mph /  18.2 km/h 56 % 0.0 in /  0 mm 436.0 W/m2 CLR
15:42 19.4 °F /  -7 °C 10.4 °F /  -12 °C 1024.6 in /  34693 hPa North 11.1 mph /  17.9 km/h 11.1 mph /  17.9 km/h 56 % 0.0 in /  0 mm 425.0 W/m2 CLR
15:47 19.4 °F /  -7 °C 10.4 °F /  -12 °C 1024.6 in /  34693 hPa Calm     56 % 0.0 in /  0 mm 415.0 W/m2 CLR
15:52 20.0 °F /  -6.7 °C 10.7 °F /  -11.8 °C 1024.6 in /  34693 hPa Calm     55 % 0.0 in /  0 mm 406.0 W/m2 CLR
15:57 20.0 °F /  -6.7 °C 10.7 °F /  -11.8 °C 1024.6 in /  34693 hPa Calm     55 % 0.0 in /  0 mm 396.0 W/m2 CLR
16:02 19.4 °F /  -7 °C 9.9 °F /  -12.3 °C 1024.6 in /  34693 hPa North 9.3 mph /  15 km/h 9.3 mph /  15 km/h 54 % 0.0 in /  0 mm 381.0 W/m2 CLR
16:07 18.9 °F /  -7.3 °C 9.9 °F /  -12.3 °C 1024.6 in /  34693 hPa North 6.4 mph /  10.3 km/h 6.4 mph /  10.3 km/h 56 % 0.0 in /  0 mm 371.0 W/m2 CLR
16:12 19.4 °F /  -7 °C 10.2 °F /  -12.1 °C 1024.6 in /  34693 hPa NE 6.4 mph /  10.3 km/h 6.4 mph /  10.3 km/h 55 % 0.0 in /  0 mm 359.0 W/m2 CLR
16:17 19.4 °F /  -7 °C 10.2 °F /  -12.1 °C 1024.9 in /  34703.1 hPa NNE 3.7 mph /  6 km/h 3.7 mph /  6 km/h 55 % 0.0 in /  0 mm 345.0 W/m2 CLR
16:22 19.4 °F /  -7 °C 10.2 °F /  -12.1 °C 1024.6 in /  34693 hPa Calm     55 % 0.0 in /  0 mm 329.0 W/m2 CLR
16:27 19.4 °F /  -7 °C 10.2 °F /  -12.1 °C 1024.6 in /  34693 hPa North 14.8 mph /  23.8 km/h 14.8 mph /  23.8 km/h 55 % 0.0 in /  0 mm 316.0 W/m2 CLR
16:32 19.4 °F /  -7 °C 9.9 °F /  -12.3 °C 1024.6 in /  34693 hPa Calm     54 % 0.0 in /  0 mm 302.0 W/m2 CLR
16:38 19.4 °F /  -7 °C 9.9 °F /  -12.3 °C 1024.6 in /  34693 hPa Calm     54 % 0.0 in /  0 mm 288.0 W/m2 CLR
16:43 19.4 °F /  -7 °C 9.9 °F /  -12.3 °C 1024.6 in /  34693 hPa Calm     54 % 0.0 in /  0 mm 274.0 W/m2 CLR
16:48 18.9 °F /  -7.3 °C 9.1 °F /  -12.7 °C 1024.6 in /  34693 hPa Calm     53 % 0.0 in /  0 mm 258.0 W/m2 CLR
16:53 18.9 °F /  -7.3 °C 9.1 °F /  -12.7 °C 1024.6 in /  34693 hPa Calm     53 % 0.0 in /  0 mm 243.0 W/m2 CLR
16:58 18.9 °F /  -7.3 °C 9.1 °F /  -12.7 °C 1024.6 in /  34693 hPa Calm     53 % 0.0 in /  0 mm 223.0 W/m2 CLR
17:03 18.9 °F /  -7.3 °C 9.1 °F /  -12.7 °C 1024.6 in /  34693 hPa Calm     53 % 0.0 in /  0 mm 211.0 W/m2 CLR
17:08 18.9 °F /  -7.3 °C 9.1 °F /  -12.7 °C 1024.9 in /  34703.1 hPa Calm     53 % 0.0 in /  0 mm 188.0 W/m2 CLR
17:13 18.9 °F /  -7.3 °C 9.4 °F /  -12.6 °C 1024.6 in /  34693 hPa Calm     54 % 0.0 in /  0 mm 172.0 W/m2 CLR
17:18 18.9 °F /  -7.3 °C 9.4 °F /  -12.6 °C 1024.6 in /  34693 hPa Calm     54 % 0.0 in /  0 mm 167.0 W/m2 CLR
17:23 18.3 °F /  -7.6 °C 8.8 °F /  -12.9 °C 1024.6 in /  34693 hPa Calm     54 % 0.0 in /  0 mm 139.0 W/m2 CLR
17:28 18.3 °F /  -7.6 °C 8.8 °F /  -12.9 °C 1024.9 in /  34703.1 hPa Calm     54 % 0.0 in /  0 mm 121.0 W/m2 CLR
17:33 18.3 °F /  -7.6 °C 9.1 °F /  -12.7 °C 1024.9 in /  34703.1 hPa Calm     55 % 0.0 in /  0 mm 113.0 W/m2 CLR
17:38 17.8 °F /  -7.9 °C 8.3 °F /  -13.2 °C 1024.9 in /  34703.1 hPa Calm     54 % 0.0 in /  0 mm 47.0 W/m2 SCT
17:43 17.2 °F /  -8.2 °C 7.8 °F /  -13.4 °C 1024.9 in /  34703.1 hPa Calm     54 % 0.0 in /  0 mm 42.0 W/m2 BKN
17:48 16.7 °F /  -8.5 °C 7.8 °F /  -13.4 °C 1024.9 in /  34703.1 hPa Calm     56 % 0.0 in /  0 mm 40.0 W/m2 BKN
17:53 16.1 °F /  -8.8 °C 7.3 °F /  -13.7 °C 1024.9 in /  34703.1 hPa Calm     56 % 0.0 in /  0 mm 53.0 W/m2 SCT
17:58 15.6 °F /  -9.1 °C 7.1 °F /  -13.8 °C 1024.9 in /  34703.1 hPa Calm     57 % 0.0 in /  0 mm 44.0 W/m2 BKN
18:03 15.6 °F /  -9.1 °C 7.3 °F /  -13.7 °C 1024.9 in /  34703.1 hPa Calm     58 % 0.0 in /  0 mm 39.0 W/m2 BKN
18:08 15.0 °F /  -9.4 °C 6.8 °F /  -14 °C 1024.9 in /  34703.1 hPa Calm     58 % 0.0 in /  0 mm 28.0 W/m2 BKN
18:13 14.4 °F /  -9.8 °C 6.3 °F /  -14.3 °C 1024.9 in /  34703.1 hPa Calm     58 % 0.0 in /  0 mm 23.0 W/m2 BKN
18:18 14.4 °F /  -9.8 °C 6.3 °F /  -14.3 °C 1024.9 in /  34703.1 hPa Calm     58 % 0.0 in /  0 mm 19.0 W/m2 BKN
18:23 13.9 °F /  -10.1 °C 6.0 °F /  -14.4 °C 1024.9 in /  34703.1 hPa Calm     59 % 0.0 in /  0 mm 16.0 W/m2 BKN
18:28 13.9 °F /  -10.1 °C 6.0 °F /  -14.4 °C 1024.9 in /  34703.1 hPa Calm     59 % 0.0 in /  0 mm 11.0 W/m2 BKN
18:33 13.3 °F /  -10.4 °C 5.7 °F /  -14.6 °C 1025.3 in /  34716.7 hPa Calm     60 % 0.0 in /  0 mm 5.0 W/m2 OVC
18:38 13.3 °F /  -10.4 °C 5.9 °F /  -14.5 °C 1025.3 in /  34716.7 hPa Calm     61 % 0.0 in /  0 mm 0.0 W/m2 OVC
18:43 12.8 °F /  -10.7 °C 5.4 °F /  -14.8 °C 1025.3 in /  34716.7 hPa Calm     61 % 0.0 in /  0 mm 0.0 W/m2 OVC
18:48 13.3 °F /  -10.4 °C 6.4 °F /  -14.2 °C 1025.3 in /  34716.7 hPa Calm     63 % 0.0 in /  0 mm 0.0 W/m2 CLR
18:53 13.3 °F /  -10.4 °C 6.7 °F /  -14.1 °C 1025.3 in /  34716.7 hPa Calm     64 % 0.0 in /  0 mm 0.0 W/m2 CLR
18:58 12.8 °F /  -10.7 °C 6.3 °F /  -14.3 °C 1025.3 in /  34716.7 hPa Calm     65 % 0.0 in /  0 mm 0.0 W/m2 CLR
19:03 12.8 °F /  -10.7 °C 6.8 °F /  -14 °C 1025.3 in /  34716.7 hPa Calm     67 % 0.0 in /  0 mm 0.0 W/m2 CLR
19:08 12.8 °F /  -10.7 °C 7.0 °F /  -13.9 °C 1025.6 in /  34726.8 hPa Calm     68 % 0.0 in /  0 mm 0.0 W/m2 CLR
19:13 12.2 °F /  -11 °C 6.9 °F /  -13.9 °C 1025.6 in /  34726.8 hPa Calm     70 % 0.0 in /  0 mm 0.0 W/m2 CLR
19:18 12.2 °F /  -11 °C 7.3 °F /  -13.7 °C 1025.6 in /  34726.8 hPa Calm     72 % 0.0 in /  0 mm 0.0 W/m2 CLR
19:23 11.7 °F /  -11.3 °C 7.2 °F /  -13.8 °C 1025.6 in /  34726.8 hPa Calm     74 % 0.0 in /  0 mm 0.0 W/m2 CLR
19:28 11.7 °F /  -11.3 °C 7.4 °F /  -13.7 °C 1025.6 in /  34726.8 hPa Calm     75 % 0.0 in /  0 mm 0.0 W/m2 CLR
19:33 11.7 °F /  -11.3 °C 7.4 °F /  -13.7 °C 1026.0 in /  34740.4 hPa Calm     75 % 0.0 in /  0 mm 0.0 W/m2 CLR
19:38 11.1 °F /  -11.6 °C 7.1 °F /  -13.8 °C 1026.0 in /  34740.4 hPa Calm     76 % 0.0 in /  0 mm 0.0 W/m2 CLR
19:43 11.1 °F /  -11.6 °C 7.2 °F /  -13.8 °C 1026.0 in /  34740.4 hPa Calm     77 % 0.0 in /  0 mm 0.0 W/m2 CLR
19:48 10.6 °F /  -11.9 °C 6.9 °F /  -13.9 °C 1026.0 in /  34740.4 hPa Calm     78 % 0.0 in /  0 mm 0.0 W/m2 CLR
19:53 10.6 °F /  -11.9 °C 7.1 °F /  -13.8 °C 1026.0 in /  34740.4 hPa Calm     79 % 0.0 in /  0 mm 0.0 W/m2 CLR
19:58 10.6 °F /  -11.9 °C 7.2 °F /  -13.8 °C 1026.0 in /  34740.4 hPa Calm     80 % 0.0 in /  0 mm 0.0 W/m2 CLR
20:03 10.6 °F /  -11.9 °C 7.2 °F /  -13.8 °C 1026.3 in /  34750.5 hPa Calm     80 % 0.0 in /  0 mm 0.0 W/m2 CLR
20:08 10.6 °F /  -11.9 °C 7.2 °F /  -13.8 °C 1026.3 in /  34750.5 hPa Calm     80 % 0.0 in /  0 mm 0.0 W/m2 CLR
20:13 10.0 °F /  -12.2 °C 6.7 °F /  -14.1 °C 1026.3 in /  34750.5 hPa Calm     80 % 0.0 in /  0 mm 0.0 W/m2 CLR
20:18 9.4 °F /  -12.6 °C 6.2 °F /  -14.3 °C 1026.3 in /  34750.5 hPa Calm     80 % 0.0 in /  0 mm 0.0 W/m2 CLR
20:23 9.4 °F /  -12.6 °C 6.3 °F /  -14.3 °C 1026.3 in /  34750.5 hPa Calm     81 % 0.0 in /  0 mm 0.0 W/m2 CLR
20:28 9.4 °F /  -12.6 °C 6.5 °F /  -14.2 °C 1026.6 in /  34760.7 hPa Calm     82 % 0.0 in /  0 mm 0.0 W/m2 CLR
20:33 8.9 °F /  -12.8 °C 6.0 °F /  -14.4 °C 1026.6 in /  34760.7 hPa Calm     82 % 0.0 in /  0 mm 0.0 W/m2 CLR
20:38 8.9 °F /  -12.8 °C 6.0 °F /  -14.4 °C 1026.6 in /  34760.7 hPa Calm     82 % 0.0 in /  0 mm 0.0 W/m2 CLR
20:43 8.9 °F /  -12.8 °C 6.2 °F /  -14.3 °C 1026.6 in /  34760.7 hPa Calm     83 % 0.0 in /  0 mm 0.0 W/m2 CLR
20:48 9.4 °F /  -12.6 °C 6.7 °F /  -14.1 °C 1026.6 in /  34760.7 hPa Calm     83 % 0.0 in /  0 mm 0.0 W/m2 CLR
20:53 9.4 °F /  -12.6 °C 6.9 °F /  -13.9 °C 1026.6 in /  34760.7 hPa Calm     84 % 0.0 in /  0 mm 0.0 W/m2 CLR
20:58 8.9 °F /  -12.8 °C 6.3 °F /  -14.3 °C 1026.6 in /  34760.7 hPa Calm     84 % 0.0 in /  0 mm 0.0 W/m2 CLR
21:03 8.9 °F /  -12.8 °C 6.3 °F /  -14.3 °C 1026.6 in /  34760.7 hPa Calm     84 % 0.0 in /  0 mm 0.0 W/m2 CLR
21:08 8.9 °F /  -12.8 °C 6.3 °F /  -14.3 °C 1026.6 in /  34760.7 hPa Calm     84 % 0.0 in /  0 mm 0.0 W/m2 CLR
21:13 9.4 °F /  -12.6 °C 6.9 °F /  -13.9 °C 1026.6 in /  34760.7 hPa Calm     84 % 0.0 in /  0 mm 0.0 W/m2 CLR
21:18 8.9 °F /  -12.8 °C 6.5 °F /  -14.2 °C 1026.6 in /  34760.7 hPa Calm     85 % 0.0 in /  0 mm 0.0 W/m2 CLR
21:23 8.9 °F /  -12.8 °C 6.5 °F /  -14.2 °C 1026.6 in /  34760.7 hPa Calm     85 % 0.0 in /  0 mm 0.0 W/m2 CLR
21:28 8.9 °F /  -12.8 °C 6.5 °F /  -14.2 °C 1026.6 in /  34760.7 hPa Calm     85 % 0.0 in /  0 mm 0.0 W/m2 CLR
21:33 8.9 °F /  -12.8 °C 6.5 °F /  -14.2 °C 1026.6 in /  34760.7 hPa Calm     85 % 0.0 in /  0 mm 0.0 W/m2 CLR
21:38 8.9 °F /  -12.8 °C 6.5 °F /  -14.2 °C 1027.0 in /  34774.2 hPa Calm     85 % 0.0 in /  0 mm 0.0 W/m2 CLR
21:43 8.3 °F /  -13.2 °C 5.9 °F /  -14.5 °C 1027.0 in /  34774.2 hPa Calm     85 % 0.0 in /  0 mm 0.0 W/m2 CLR
21:49 8.3 °F /  -13.2 °C 5.9 °F /  -14.5 °C 1027.0 in /  34774.2 hPa Calm     85 % 0.0 in /  0 mm 0.0 W/m2 CLR
21:54 7.8 °F /  -13.4 °C 5.6 °F /  -14.7 °C 1027.0 in /  34774.2 hPa Calm     86 % 0.0 in /  0 mm 0.0 W/m2 CLR
21:59 7.8 °F /  -13.4 °C 5.6 °F /  -14.7 °C 1027.0 in /  34774.2 hPa Calm     86 % 0.0 in /  0 mm 0.0 W/m2 CLR
22:04 7.8 °F /  -13.4 °C 5.6 °F /  -14.7 °C 1027.0 in /  34774.2 hPa Calm     86 % 0.0 in /  0 mm 0.0 W/m2 CLR
22:09 7.8 °F /  -13.4 °C 5.7 °F /  -14.6 °C 1027.0 in /  34774.2 hPa Calm     87 % 0.0 in /  0 mm 0.0 W/m2 CLR
22:14 7.8 °F /  -13.4 °C 5.6 °F /  -14.7 °C 1027.3 in /  34784.4 hPa Calm     86 % 0.0 in /  0 mm 0.0 W/m2 CLR
22:19 7.8 °F /  -13.4 °C 5.7 °F /  -14.6 °C 1027.3 in /  34784.4 hPa Calm     87 % 0.0 in /  0 mm 0.0 W/m2 CLR
22:24 7.8 °F /  -13.4 °C 5.6 °F /  -14.7 °C 1027.3 in /  34784.4 hPa Calm     86 % 0.0 in /  0 mm 0.0 W/m2 CLR
22:29 7.8 °F /  -13.4 °C 5.6 °F /  -14.7 °C 1027.3 in /  34784.4 hPa Calm     86 % 0.0 in /  0 mm 0.0 W/m2 CLR
22:34 7.2 °F /  -13.8 °C 5.1 °F /  -14.9 °C 1027.3 in /  34784.4 hPa Calm     86 % 0.0 in /  0 mm 0.0 W/m2 CLR
22:39 7.2 °F /  -13.8 °C 5.2 °F /  -14.9 °C 1027.3 in /  34784.4 hPa Calm     87 % 0.0 in /  0 mm 0.0 W/m2 CLR
22:44 7.2 °F /  -13.8 °C 5.2 °F /  -14.9 °C 1027.3 in /  34784.4 hPa Calm     87 % 0.0 in /  0 mm 0.0 W/m2 CLR
22:49 7.2 °F /  -13.8 °C 5.2 °F /  -14.9 °C 1027.3 in /  34784.4 hPa Calm     87 % 0.0 in /  0 mm 0.0 W/m2 CLR
22:54 7.2 °F /  -13.8 °C 5.2 °F /  -14.9 °C 1027.3 in /  34784.4 hPa Calm     87 % 0.0 in /  0 mm 0.0 W/m2 CLR
22:59 7.2 °F /  -13.8 °C 5.2 °F /  -14.9 °C 1027.3 in /  34784.4 hPa Calm     87 % 0.0 in /  0 mm 0.0 W/m2 CLR
23:04 7.2 °F /  -13.8 °C 5.2 °F /  -14.9 °C 1027.7 in /  34797.9 hPa Calm     87 % 0.0 in /  0 mm 0.0 W/m2 CLR
23:09 7.2 °F /  -13.8 °C 5.2 °F /  -14.9 °C 1027.3 in /  34784.4 hPa Calm     87 % 0.0 in /  0 mm 0.0 W/m2 CLR
23:14 7.2 °F /  -13.8 °C 5.2 °F /  -14.9 °C 1027.3 in /  34784.4 hPa Calm     87 % 0.0 in /  0 mm 0.0 W/m2 CLR
23:19 6.7 °F /  -14.1 °C 4.8 °F /  -15.1 °C 1027.3 in /  34784.4 hPa Calm     88 % 0.0 in /  0 mm 0.0 W/m2 CLR
23:24 6.7 °F /  -14.1 °C 4.8 °F /  -15.1 °C 1027.3 in /  34784.4 hPa Calm     88 % 0.0 in /  0 mm 0.0 W/m2 CLR
23:29 6.7 °F /  -14.1 °C 4.8 °F /  -15.1 °C 1027.3 in /  34784.4 hPa Calm     88 % 0.0 in /  0 mm 0.0 W/m2 CLR
23:34 6.7 °F /  -14.1 °C 4.8 °F /  -15.1 °C 1027.3 in /  34784.4 hPa Calm     88 % 0.0 in /  0 mm 0.0 W/m2 CLR
23:39 6.7 °F /  -14.1 °C 4.8 °F /  -15.1 °C 1027.3 in /  34784.4 hPa Calm     88 % 0.0 in /  0 mm 0.0 W/m2 CLR
23:44 6.7 °F /  -14.1 °C 5.0 °F /  -15 °C 1027.3 in /  34784.4 hPa Calm     89 % 0.0 in /  0 mm 0.0 W/m2 CLR
23:49 6.7 °F /  -14.1 °C 5.0 °F /  -15 °C 1027.3 in /  34784.4 hPa Calm     89 % 0.0 in /  0 mm 0.0 W/m2 CLR
23:54 6.7 °F /  -14.1 °C 5.0 °F /  -15 °C 1027.3 in /  34784.4 hPa Calm     89 % 0.0 in /  0 mm 0.0 W/m2 CLR
23:59 6.7 °F /  -14.1 °C 5.0 °F /  -15 °C 1027.3 in /  34784.4 hPa Calm     89 % 0.0 in /  0 mm 0.0 W/m2 CLR
Lo Temps de Massalio
Compliments of Weather Underground - 1.25 mb